sensor_id;sensor_type;location;lat;lon;timestamp;temperature;humidity
71672;DHT22;62112;45.638;11.714;2022-09-09T00:01:26;29.20;66.10
71672;DHT22;62112;45.638;11.714;2022-09-09T00:06:32;29.20;66.00
71672;DHT22;62112;45.638;11.714;2022-09-09T00:09:16;29.20;66.90
71672;DHT22;62112;45.638;11.714;2022-09-09T00:12:02;29.20;65.90
71672;DHT22;62112;45.638;11.714;2022-09-09T00:14:34;29.30;66.20
71672;DHT22;62112;45.638;11.714;2022-09-09T00:17:07;29.20;66.50
71672;DHT22;62112;45.638;11.714;2022-09-09T00:19:56;29.20;66.60
71672;DHT22;62112;45.638;11.714;2022-09-09T00:22:28;29.20;66.60
71672;DHT22;62112;45.638;11.714;2022-09-09T00:27:49;29.10;66.80
71672;DHT22;62112;45.638;11.714;2022-09-09T00:30:23;29.10;69.30
71672;DHT22;62112;45.638;11.714;2022-09-09T00:33:00;29.10;69.50
71672;DHT22;62112;45.638;11.714;2022-09-09T00:35:38;29.10;68.00
71672;DHT22;62112;45.638;11.714;2022-09-09T00:38:13;29.00;69.00
71672;DHT22;62112;45.638;11.714;2022-09-09T00:41:04;29.10;69.70
71672;DHT22;62112;45.638;11.714;2022-09-09T00:43:36;29.10;69.70
71672;DHT22;62112;45.638;11.714;2022-09-09T00:57:29;29.00;69.90
71672;DHT22;62112;45.638;11.714;2022-09-09T01:00:17;29.00;70.10
71672;DHT22;62112;45.638;11.714;2022-09-09T01:08:28;28.90;70.50
71672;DHT22;62112;45.638;11.714;2022-09-09T01:11:00;29.00;70.10
71672;DHT22;62112;45.638;11.714;2022-09-09T01:13:35;28.90;70.10
71672;DHT22;62112;45.638;11.714;2022-09-09T01:16:03;28.90;70.60
71672;DHT22;62112;45.638;11.714;2022-09-09T01:18:49;28.90;70.70
71672;DHT22;62112;45.638;11.714;2022-09-09T01:26:52;28.80;70.80
71672;DHT22;62112;45.638;11.714;2022-09-09T01:29:21;28.80;70.80
71672;DHT22;62112;45.638;11.714;2022-09-09T01:32:00;28.80;70.80
71672;DHT22;62112;45.638;11.714;2022-09-09T01:34:33;28.80;70.60
71672;DHT22;62112;45.638;11.714;2022-09-09T01:37:07;28.80;70.70
71672;DHT22;62112;45.638;11.714;2022-09-09T01:39:36;28.70;71.00
71672;DHT22;62112;45.638;11.714;2022-09-09T01:42:05;28.80;70.90
71672;DHT22;62112;45.638;11.714;2022-09-09T01:44:32;28.80;70.70
71672;DHT22;62112;45.638;11.714;2022-09-09T01:46:58;28.70;70.70
71672;DHT22;62112;45.638;11.714;2022-09-09T01:49:24;28.80;70.70
71672;DHT22;62112;45.638;11.714;2022-09-09T01:51:53;28.70;70.40
71672;DHT22;62112;45.638;11.714;2022-09-09T01:54:20;28.70;70.30
71672;DHT22;62112;45.638;11.714;2022-09-09T01:56:53;28.70;70.50
71672;DHT22;62112;45.638;11.714;2022-09-09T02:02:19;28.60;69.90
71672;DHT22;62112;45.638;11.714;2022-09-09T02:04:50;28.70;70.40
71672;DHT22;62112;45.638;11.714;2022-09-09T02:07:40;28.70;70.60
71672;DHT22;62112;45.638;11.714;2022-09-09T02:10:29;28.60;70.10
71672;DHT22;62112;45.638;11.714;2022-09-09T02:13:03;28.60;70.60
71672;DHT22;62112;45.638;11.714;2022-09-09T02:18:12;28.60;70.50
71672;DHT22;62112;45.638;11.714;2022-09-09T02:20:40;28.60;70.30
71672;DHT22;62112;45.638;11.714;2022-09-09T02:23:08;28.60;70.30
71672;DHT22;62112;45.638;11.714;2022-09-09T02:25:36;28.70;70.30
71672;DHT22;62112;45.638;11.714;2022-09-09T02:28:06;28.50;70.10
71672;DHT22;62112;45.638;11.714;2022-09-09T02:30:34;28.60;70.10
71672;DHT22;62112;45.638;11.714;2022-09-09T02:33:04;28.60;70.00
71672;DHT22;62112;45.638;11.714;2022-09-09T02:35:32;28.50;70.40
71672;DHT22;62112;45.638;11.714;2022-09-09T02:38:12;28.60;69.70
71672;DHT22;62112;45.638;11.714;2022-09-09T02:40:39;28.50;70.20
71672;DHT22;62112;45.638;11.714;2022-09-09T02:43:04;28.50;69.80
71672;DHT22;62112;45.638;11.714;2022-09-09T02:45:58;28.50;69.60
71672;DHT22;62112;45.638;11.714;2022-09-09T02:51:07;28.60;69.10
71672;DHT22;62112;45.638;11.714;2022-09-09T02:56:16;28.50;68.80
71672;DHT22;62112;45.638;11.714;2022-09-09T02:58:42;28.50;68.90
71672;DHT22;62112;45.638;11.714;2022-09-09T03:01:09;28.40;69.00
71672;DHT22;62112;45.638;11.714;2022-09-09T03:03:35;28.40;69.10
71672;DHT22;62112;45.638;11.714;2022-09-09T03:06:01;28.40;69.10
71672;DHT22;62112;45.638;11.714;2022-09-09T03:08:27;28.50;69.30
71672;DHT22;62112;45.638;11.714;2022-09-09T03:10:58;28.40;69.30
71672;DHT22;62112;45.638;11.714;2022-09-09T03:13:24;28.40;69.30
71672;DHT22;62112;45.638;11.714;2022-09-09T03:15:50;28.40;69.60
71672;DHT22;62112;45.638;11.714;2022-09-09T03:18:17;28.40;69.30
71672;DHT22;62112;45.638;11.714;2022-09-09T03:20:43;28.50;69.50
71672;DHT22;62112;45.638;11.714;2022-09-09T03:23:09;28.50;69.20
71672;DHT22;62112;45.638;11.714;2022-09-09T03:25:34;28.40;69.20
71672;DHT22;62112;45.638;11.714;2022-09-09T03:28:01;28.50;69.30
71672;DHT22;62112;45.638;11.714;2022-09-09T03:30:27;28.40;69.10
71672;DHT22;62112;45.638;11.714;2022-09-09T03:32:54;28.40;69.30
71672;DHT22;62112;45.638;11.714;2022-09-09T03:35:20;28.40;69.60
71672;DHT22;62112;45.638;11.714;2022-09-09T03:37:47;28.40;69.50
71672;DHT22;62112;45.638;11.714;2022-09-09T03:40:13;28.40;69.20
71672;DHT22;62112;45.638;11.714;2022-09-09T03:42:39;28.40;69.50
71672;DHT22;62112;45.638;11.714;2022-09-09T03:45:07;28.40;69.80
71672;DHT22;62112;45.638;11.714;2022-09-09T03:47:34;28.40;69.80
71672;DHT22;62112;45.638;11.714;2022-09-09T03:50:00;28.30;69.40
71672;DHT22;62112;45.638;11.714;2022-09-09T03:52:26;28.40;69.80
71672;DHT22;62112;45.638;11.714;2022-09-09T03:54:53;28.40;69.90
71672;DHT22;62112;45.638;11.714;2022-09-09T03:57:20;28.30;69.80
71672;DHT22;62112;45.638;11.714;2022-09-09T03:59:45;28.30;69.80
71672;DHT22;62112;45.638;11.714;2022-09-09T04:02:11;28.30;69.70
71672;DHT22;62112;45.638;11.714;2022-09-09T04:04:37;28.30;69.40
71672;DHT22;62112;45.638;11.714;2022-09-09T04:07:03;28.40;69.70
71672;DHT22;62112;45.638;11.714;2022-09-09T04:09:31;28.30;69.50
71672;DHT22;62112;45.638;11.714;2022-09-09T04:11:57;28.30;69.20
71672;DHT22;62112;45.638;11.714;2022-09-09T04:14:23;28.30;69.00
71672;DHT22;62112;45.638;11.714;2022-09-09T04:16:50;28.30;69.10
71672;DHT22;62112;45.638;11.714;2022-09-09T04:19:18;28.30;69.60
71672;DHT22;62112;45.638;11.714;2022-09-09T04:21:46;28.30;69.70
71672;DHT22;62112;45.638;11.714;2022-09-09T04:24:20;28.20;69.60
71672;DHT22;62112;45.638;11.714;2022-09-09T04:26:49;28.20;69.30
71672;DHT22;62112;45.638;11.714;2022-09-09T04:29:15;28.30;69.30
71672;DHT22;62112;45.638;11.714;2022-09-09T04:31:42;28.20;69.40
71672;DHT22;62112;45.638;11.714;2022-09-09T04:34:11;28.30;69.00
71672;DHT22;62112;45.638;11.714;2022-09-09T04:36:42;28.30;69.70
71672;DHT22;62112;45.638;11.714;2022-09-09T04:39:15;28.30;69.50
71672;DHT22;62112;45.638;11.714;2022-09-09T04:41:44;28.30;68.70
71672;DHT22;62112;45.638;11.714;2022-09-09T04:44:09;28.20;69.40
71672;DHT22;62112;45.638;11.714;2022-09-09T04:46:35;28.20;68.60
71672;DHT22;62112;45.638;11.714;2022-09-09T04:49:02;28.30;69.00
71672;DHT22;62112;45.638;11.714;2022-09-09T04:51:27;28.30;68.10
71672;DHT22;62112;45.638;11.714;2022-09-09T04:53:53;28.30;69.10
71672;DHT22;62112;45.638;11.714;2022-09-09T04:56:19;28.20;68.70
71672;DHT22;62112;45.638;11.714;2022-09-09T04:58:45;28.20;68.80
71672;DHT22;62112;45.638;11.714;2022-09-09T05:01:17;28.30;68.60
71672;DHT22;62112;45.638;11.714;2022-09-09T05:03:44;28.20;69.00
71672;DHT22;62112;45.638;11.714;2022-09-09T05:06:21;28.20;68.70
71672;DHT22;62112;45.638;11.714;2022-09-09T05:08:47;28.30;69.40
71672;DHT22;62112;45.638;11.714;2022-09-09T05:11:20;28.20;68.90
71672;DHT22;62112;45.638;11.714;2022-09-09T05:13:50;28.30;68.70
71672;DHT22;62112;45.638;11.714;2022-09-09T05:16:20;28.20;68.60
71672;DHT22;62112;45.638;11.714;2022-09-09T05:18:47;28.20;68.50
71672;DHT22;62112;45.638;11.714;2022-09-09T05:21:15;28.20;68.60
71672;DHT22;62112;45.638;11.714;2022-09-09T05:23:45;28.30;68.70
71672;DHT22;62112;45.638;11.714;2022-09-09T05:26:20;28.20;68.20
71672;DHT22;62112;45.638;11.714;2022-09-09T05:28:48;28.20;68.40
71672;DHT22;62112;45.638;11.714;2022-09-09T05:31:16;28.20;68.50
71672;DHT22;62112;45.638;11.714;2022-09-09T05:33:45;28.30;68.30
71672;DHT22;62112;45.638;11.714;2022-09-09T05:36:17;28.20;68.30
71672;DHT22;62112;45.638;11.714;2022-09-09T05:38:45;28.30;68.00
71672;DHT22;62112;45.638;11.714;2022-09-09T05:41:13;28.20;68.50
71672;DHT22;62112;45.638;11.714;2022-09-09T05:43:41;28.20;68.10
71672;DHT22;62112;45.638;11.714;2022-09-09T05:46:13;28.20;68.30
71672;DHT22;62112;45.638;11.714;2022-09-09T05:48:43;28.20;67.80
71672;DHT22;62112;45.638;11.714;2022-09-09T05:51:14;28.20;68.10
71672;DHT22;62112;45.638;11.714;2022-09-09T05:53:42;28.30;68.20
71672;DHT22;62112;45.638;11.714;2022-09-09T05:56:09;28.20;68.30
71672;DHT22;62112;45.638;11.714;2022-09-09T05:58:36;28.20;68.50
71672;DHT22;62112;45.638;11.714;2022-09-09T06:01:07;28.20;68.00
71672;DHT22;62112;45.638;11.714;2022-09-09T06:03:38;28.30;68.20
71672;DHT22;62112;45.638;11.714;2022-09-09T06:06:07;28.20;68.90
71672;DHT22;62112;45.638;11.714;2022-09-09T06:08:38;28.20;68.70
71672;DHT22;62112;45.638;11.714;2022-09-09T06:11:09;28.30;68.90
71672;DHT22;62112;45.638;11.714;2022-09-09T06:13:35;28.30;69.00
71672;DHT22;62112;45.638;11.714;2022-09-09T06:16:05;28.20;69.10
71672;DHT22;62112;45.638;11.714;2022-09-09T06:18:32;28.30;68.60
71672;DHT22;62112;45.638;11.714;2022-09-09T06:21:01;28.30;68.60
71672;DHT22;62112;45.638;11.714;2022-09-09T06:23:28;28.30;69.00
71672;DHT22;62112;45.638;11.714;2022-09-09T06:26:21;28.20;68.50
71672;DHT22;62112;45.638;11.714;2022-09-09T06:28:50;28.20;70.00
71672;DHT22;62112;45.638;11.714;2022-09-09T06:31:18;28.20;69.50
71672;DHT22;62112;45.638;11.714;2022-09-09T06:33:47;28.20;69.60
71672;DHT22;62112;45.638;11.714;2022-09-09T06:36:15;28.20;70.70
71672;DHT22;62112;45.638;11.714;2022-09-09T06:38:42;28.20;70.50
71672;DHT22;62112;45.638;11.714;2022-09-09T06:41:09;28.30;70.70
71672;DHT22;62112;45.638;11.714;2022-09-09T06:43:36;28.30;70.70
71672;DHT22;62112;45.638;11.714;2022-09-09T06:46:15;28.30;72.40
71672;DHT22;62112;45.638;11.714;2022-09-09T06:48:43;28.40;73.00
71672;DHT22;62112;45.638;11.714;2022-09-09T06:51:15;28.40;72.90
71672;DHT22;62112;45.638;11.714;2022-09-09T06:53:43;28.40;73.30
71672;DHT22;62112;45.638;11.714;2022-09-09T06:58:36;28.40;73.60
71672;DHT22;62112;45.638;11.714;2022-09-09T07:01:06;28.40;73.80
71672;DHT22;62112;45.638;11.714;2022-09-09T07:03:33;28.40;74.30
71672;DHT22;62112;45.638;11.714;2022-09-09T07:05:59;28.40;74.60
71672;DHT22;62112;45.638;11.714;2022-09-09T07:08:25;28.40;74.60
71672;DHT22;62112;45.638;11.714;2022-09-09T07:10:52;28.40;74.70
71672;DHT22;62112;45.638;11.714;2022-09-09T07:13:25;28.40;74.70
71672;DHT22;62112;45.638;11.714;2022-09-09T07:15:52;28.40;74.80
71672;DHT22;62112;45.638;11.714;2022-09-09T07:18:18;28.50;74.90
71672;DHT22;62112;45.638;11.714;2022-09-09T07:20:55;28.60;75.00
71672;DHT22;62112;45.638;11.714;2022-09-09T07:23:21;28.40;75.20
71672;DHT22;62112;45.638;11.714;2022-09-09T07:25:47;28.40;75.10
71672;DHT22;62112;45.638;11.714;2022-09-09T07:28:14;28.40;75.00
71672;DHT22;62112;45.638;11.714;2022-09-09T07:30:40;28.40;74.70
71672;DHT22;62112;45.638;11.714;2022-09-09T07:33:06;28.40;74.80
71672;DHT22;62112;45.638;11.714;2022-09-09T07:35:33;28.40;74.30
71672;DHT22;62112;45.638;11.714;2022-09-09T07:38:01;28.50;74.50
71672;DHT22;62112;45.638;11.714;2022-09-09T07:40:27;28.40;74.20
71672;DHT22;62112;45.638;11.714;2022-09-09T07:42:53;28.40;73.90
71672;DHT22;62112;45.638;11.714;2022-09-09T07:45:19;28.40;73.40
71672;DHT22;62112;45.638;11.714;2022-09-09T07:47:45;28.50;72.90
71672;DHT22;62112;45.638;11.714;2022-09-09T07:50:10;28.60;72.50
71672;DHT22;62112;45.638;11.714;2022-09-09T07:52:37;28.60;71.40
71672;DHT22;62112;45.638;11.714;2022-09-09T07:55:03;28.50;71.40
71672;DHT22;62112;45.638;11.714;2022-09-09T07:57:30;28.50;71.10
71672;DHT22;62112;45.638;11.714;2022-09-09T07:59:56;28.40;70.40
71672;DHT22;62112;45.638;11.714;2022-09-09T08:02:23;28.40;70.10
71672;DHT22;62112;45.638;11.714;2022-09-09T08:04:49;28.40;70.30
71672;DHT22;62112;45.638;11.714;2022-09-09T08:07:16;28.30;70.00
71672;DHT22;62112;45.638;11.714;2022-09-09T08:09:43;28.30;70.00
71672;DHT22;62112;45.638;11.714;2022-09-09T08:12:09;28.40;70.20
71672;DHT22;62112;45.638;11.714;2022-09-09T08:14:38;28.30;70.70
71672;DHT22;62112;45.638;11.714;2022-09-09T08:17:05;28.30;71.10
71672;DHT22;62112;45.638;11.714;2022-09-09T08:19:31;28.30;71.50
71672;DHT22;62112;45.638;11.714;2022-09-09T08:22:01;28.20;72.40
71672;DHT22;62112;45.638;11.714;2022-09-09T08:24:28;28.20;72.50
71672;DHT22;62112;45.638;11.714;2022-09-09T08:26:54;28.10;72.70
71672;DHT22;62112;45.638;11.714;2022-09-09T08:29:26;28.10;72.90
71672;DHT22;62112;45.638;11.714;2022-09-09T08:31:58;28.10;73.00
71672;DHT22;62112;45.638;11.714;2022-09-09T08:34:25;28.20;72.60
71672;DHT22;62112;45.638;11.714;2022-09-09T08:36:53;28.30;72.30
71672;DHT22;62112;45.638;11.714;2022-09-09T08:39:20;28.40;71.80
71672;DHT22;62112;45.638;11.714;2022-09-09T08:44:45;28.50;70.80
71672;DHT22;62112;45.638;11.714;2022-09-09T08:52:53;28.50;71.00
71672;DHT22;62112;45.638;11.714;2022-09-09T08:55:43;28.50;70.60
71672;DHT22;62112;45.638;11.714;2022-09-09T08:58:26;28.60;69.60
71672;DHT22;62112;45.638;11.714;2022-09-09T09:01:27;28.50;69.10
71672;DHT22;62112;45.638;11.714;2022-09-09T09:09:44;28.80;66.50
71672;DHT22;62112;45.638;11.714;2022-09-09T09:12:19;28.80;66.70
71672;DHT22;62112;45.638;11.714;2022-09-09T09:14:47;28.90;66.30
71672;DHT22;62112;45.638;11.714;2022-09-09T09:17:19;28.90;65.30
71672;DHT22;62112;45.638;11.714;2022-09-09T09:19:49;29.00;64.70
71672;DHT22;62112;45.638;11.714;2022-09-09T09:22:26;29.00;65.50
71672;DHT22;62112;45.638;11.714;2022-09-09T09:25:22;29.10;63.30
71672;DHT22;62112;45.638;11.714;2022-09-09T09:28:13;29.20;62.60
71672;DHT22;62112;45.638;11.714;2022-09-09T09:30:59;29.20;61.70
71672;DHT22;62112;45.638;11.714;2022-09-09T09:33:49;29.10;62.10
71672;DHT22;62112;45.638;11.714;2022-09-09T09:36:21;29.20;61.90
71672;DHT22;62112;45.638;11.714;2022-09-09T09:38:57;29.20;62.00
71672;DHT22;62112;45.638;11.714;2022-09-09T09:41:38;29.10;61.80
71672;DHT22;62112;45.638;11.714;2022-09-09T09:44:05;29.20;61.70
71672;DHT22;62112;45.638;11.714;2022-09-09T09:46:33;29.10;62.10
71672;DHT22;62112;45.638;11.714;2022-09-09T09:49:02;29.10;62.00
71672;DHT22;62112;45.638;11.714;2022-09-09T09:51:30;29.10;62.00
71672;DHT22;62112;45.638;11.714;2022-09-09T09:54:31;29.20;61.60
71672;DHT22;62112;45.638;11.714;2022-09-09T09:57:12;29.30;61.80
71672;DHT22;62112;45.638;11.714;2022-09-09T09:59:40;29.30;61.70
71672;DHT22;62112;45.638;11.714;2022-09-09T10:04:43;29.40;59.70
71672;DHT22;62112;45.638;11.714;2022-09-09T10:07:20;29.30;60.10
71672;DHT22;62112;45.638;11.714;2022-09-09T10:09:52;29.40;59.80
71672;DHT22;62112;45.638;11.714;2022-09-09T10:14:48;29.30;60.50
71672;DHT22;62112;45.638;11.714;2022-09-09T10:17:37;29.30;60.70
71672;DHT22;62112;45.638;11.714;2022-09-09T10:20:20;29.30;60.30
71672;DHT22;62112;45.638;11.714;2022-09-09T10:22:52;29.30;59.70
71672;DHT22;62112;45.638;11.714;2022-09-09T10:25:30;29.30;60.30
71672;DHT22;62112;45.638;11.714;2022-09-09T10:28:37;29.30;60.80
71672;DHT22;62112;45.638;11.714;2022-09-09T10:31:12;29.30;61.30
71672;DHT22;62112;45.638;11.714;2022-09-09T10:33:53;29.40;61.40
71672;DHT22;62112;45.638;11.714;2022-09-09T10:36:26;29.40;61.20
71672;DHT22;62112;45.638;11.714;2022-09-09T10:42:09;29.30;60.30
71672;DHT22;62112;45.638;11.714;2022-09-09T10:53:02;29.30;61.40
71672;DHT22;62112;45.638;11.714;2022-09-09T10:55:53;29.30;60.70
71672;DHT22;62112;45.638;11.714;2022-09-09T10:58:39;29.20;60.40
71672;DHT22;62112;45.638;11.714;2022-09-09T11:01:17;29.20;60.60
71672;DHT22;62112;45.638;11.714;2022-09-09T11:03:48;29.20;60.70
71672;DHT22;62112;45.638;11.714;2022-09-09T11:06:20;29.20;60.70
71672;DHT22;62112;45.638;11.714;2022-09-09T11:08:50;29.30;60.90
71672;DHT22;62112;45.638;11.714;2022-09-09T11:11:19;29.30;60.30
71672;DHT22;62112;45.638;11.714;2022-09-09T11:14:12;29.30;60.70
71672;DHT22;62112;45.638;11.714;2022-09-09T11:16:52;29.30;59.90
71672;DHT22;62112;45.638;11.714;2022-09-09T11:19:29;29.40;59.40
71672;DHT22;62112;45.638;11.714;2022-09-09T11:21:59;29.30;59.30
71672;DHT22;62112;45.638;11.714;2022-09-09T11:27:05;29.30;59.10
71672;DHT22;62112;45.638;11.714;2022-09-09T11:38:19;29.20;58.20
71672;DHT22;62112;45.638;11.714;2022-09-09T11:40:53;29.30;58.30
71672;DHT22;62112;45.638;11.714;2022-09-09T11:43:27;29.40;58.30
71672;DHT22;62112;45.638;11.714;2022-09-09T11:45:57;29.20;57.90
71672;DHT22;62112;45.638;11.714;2022-09-09T11:51:06;29.20;57.80
71672;DHT22;62112;45.638;11.714;2022-09-09T11:53:34;29.10;57.80
71672;DHT22;62112;45.638;11.714;2022-09-09T11:58:39;29.20;57.60
71672;DHT22;62112;45.638;11.714;2022-09-09T12:01:35;29.00;59.80
71672;DHT22;62112;45.638;11.714;2022-09-09T12:12:28;29.00;60.60
71672;DHT22;62112;45.638;11.714;2022-09-09T12:14:55;29.00;60.30
71672;DHT22;62112;45.638;11.714;2022-09-09T12:17:24;29.00;60.60
71672;DHT22;62112;45.638;11.714;2022-09-09T12:20:15;28.90;60.90
71672;DHT22;62112;45.638;11.714;2022-09-09T12:31:04;28.50;62.40
71672;DHT22;62112;45.638;11.714;2022-09-09T12:33:40;28.60;62.90
71672;DHT22;62112;45.638;11.714;2022-09-09T12:36:16;28.60;63.90
71672;DHT22;62112;45.638;11.714;2022-09-09T12:38:53;28.70;64.30
71672;DHT22;62112;45.638;11.714;2022-09-09T12:41:22;28.80;64.00
71672;DHT22;62112;45.638;11.714;2022-09-09T12:43:49;28.70;63.10
71672;DHT22;62112;45.638;11.714;2022-09-09T12:46:43;28.70;62.30
71672;DHT22;62112;45.638;11.714;2022-09-09T12:49:30;28.90;61.20
71672;DHT22;62112;45.638;11.714;2022-09-09T12:52:02;28.80;61.90
71672;DHT22;62112;45.638;11.714;2022-09-09T12:54:36;28.70;62.40
71672;DHT22;62112;45.638;11.714;2022-09-09T12:57:04;28.80;62.70
71672;DHT22;62112;45.638;11.714;2022-09-09T12:59:39;28.80;63.10
71672;DHT22;62112;45.638;11.714;2022-09-09T13:02:26;28.80;63.80
71672;DHT22;62112;45.638;11.714;2022-09-09T13:04:52;28.90;63.70
71672;DHT22;62112;45.638;11.714;2022-09-09T13:07:30;28.80;64.10
71672;DHT22;62112;45.638;11.714;2022-09-09T13:09:57;28.80;65.30
71672;DHT22;62112;45.638;11.714;2022-09-09T13:12:23;28.70;65.40
71672;DHT22;62112;45.638;11.714;2022-09-09T13:14:53;28.80;64.90
71672;DHT22;62112;45.638;11.714;2022-09-09T13:17:25;28.80;65.70
71672;DHT22;62112;45.638;11.714;2022-09-09T13:19:52;28.80;66.10
71672;DHT22;62112;45.638;11.714;2022-09-09T13:25:21;28.80;65.80
71672;DHT22;62112;45.638;11.714;2022-09-09T13:28:00;28.80;66.50
71672;DHT22;62112;45.638;11.714;2022-09-09T13:30:35;28.80;65.20
71672;DHT22;62112;45.638;11.714;2022-09-09T13:36:03;28.90;65.20
71672;DHT22;62112;45.638;11.714;2022-09-09T13:39:02;28.80;65.00
71672;DHT22;62112;45.638;11.714;2022-09-09T13:41:43;28.90;65.00
71672;DHT22;62112;45.638;11.714;2022-09-09T13:44:30;28.90;64.90
71672;DHT22;62112;45.638;11.714;2022-09-09T13:47:18;29.00;64.60
71672;DHT22;62112;45.638;11.714;2022-09-09T13:49:48;29.00;64.30
71672;DHT22;62112;45.638;11.714;2022-09-09T13:52:16;28.90;63.80
71672;DHT22;62112;45.638;11.714;2022-09-09T13:54:47;29.00;64.80
71672;DHT22;62112;45.638;11.714;2022-09-09T13:57:19;28.90;63.90
71672;DHT22;62112;45.638;11.714;2022-09-09T13:59:46;29.00;63.60
71672;DHT22;62112;45.638;11.714;2022-09-09T14:02:13;29.00;64.30
71672;DHT22;62112;45.638;11.714;2022-09-09T14:04:39;29.00;63.90
71672;DHT22;62112;45.638;11.714;2022-09-09T14:07:13;29.00;64.00
71672;DHT22;62112;45.638;11.714;2022-09-09T14:09:39;28.90;64.00
71672;DHT22;62112;45.638;11.714;2022-09-09T14:12:12;28.90;64.10
71672;DHT22;62112;45.638;11.714;2022-09-09T14:14:39;28.90;64.20
71672;DHT22;62112;45.638;11.714;2022-09-09T14:17:05;29.00;64.10
71672;DHT22;62112;45.638;11.714;2022-09-09T14:19:32;29.00;63.60
71672;DHT22;62112;45.638;11.714;2022-09-09T14:21:58;29.00;63.40
71672;DHT22;62112;45.638;11.714;2022-09-09T14:24:24;29.00;63.00
71672;DHT22;62112;45.638;11.714;2022-09-09T14:26:50;29.00;63.20
71672;DHT22;62112;45.638;11.714;2022-09-09T14:29:16;29.00;63.60
71672;DHT22;62112;45.638;11.714;2022-09-09T14:31:42;29.00;63.40
71672;DHT22;62112;45.638;11.714;2022-09-09T14:34:08;29.00;63.20
71672;DHT22;62112;45.638;11.714;2022-09-09T14:36:35;28.90;63.30
71672;DHT22;62112;45.638;11.714;2022-09-09T14:39:01;28.90;63.90
71672;DHT22;62112;45.638;11.714;2022-09-09T14:41:27;28.90;64.20
71672;DHT22;62112;45.638;11.714;2022-09-09T14:43:55;28.90;64.60
71672;DHT22;62112;45.638;11.714;2022-09-09T14:46:20;28.90;65.20
71672;DHT22;62112;45.638;11.714;2022-09-09T14:48:46;28.90;64.90
71672;DHT22;62112;45.638;11.714;2022-09-09T14:51:19;28.90;65.10
71672;DHT22;62112;45.638;11.714;2022-09-09T14:53:46;28.90;66.40
71672;DHT22;62112;45.638;11.714;2022-09-09T14:56:14;28.90;66.20
71672;DHT22;62112;45.638;11.714;2022-09-09T14:58:41;28.80;66.20
71672;DHT22;62112;45.638;11.714;2022-09-09T15:01:09;28.90;66.60
71672;DHT22;62112;45.638;11.714;2022-09-09T15:03:39;28.90;67.30
71672;DHT22;62112;45.638;11.714;2022-09-09T15:06:10;28.90;66.90
71672;DHT22;62112;45.638;11.714;2022-09-09T15:08:37;28.80;67.70
71672;DHT22;62112;45.638;11.714;2022-09-09T15:11:05;28.80;67.40
71672;DHT22;62112;45.638;11.714;2022-09-09T15:13:33;28.80;67.10
71672;DHT22;62112;45.638;11.714;2022-09-09T15:16:08;28.80;67.60
71672;DHT22;62112;45.638;11.714;2022-09-09T15:18:34;28.80;68.00
71672;DHT22;62112;45.638;11.714;2022-09-09T15:21:04;28.90;67.80
71672;DHT22;62112;45.638;11.714;2022-09-09T15:23:34;28.80;68.70
71672;DHT22;62112;45.638;11.714;2022-09-09T15:26:01;28.90;68.30
71672;DHT22;62112;45.638;11.714;2022-09-09T15:28:28;28.80;68.60
71672;DHT22;62112;45.638;11.714;2022-09-09T15:30:54;28.90;68.20
71672;DHT22;62112;45.638;11.714;2022-09-09T15:33:22;28.80;68.40
71672;DHT22;62112;45.638;11.714;2022-09-09T15:35:48;28.80;68.20
71672;DHT22;62112;45.638;11.714;2022-09-09T15:38:15;28.80;68.00
71672;DHT22;62112;45.638;11.714;2022-09-09T15:40:42;28.80;68.60
71672;DHT22;62112;45.638;11.714;2022-09-09T15:43:09;28.80;68.70
71672;DHT22;62112;45.638;11.714;2022-09-09T15:45:36;28.90;68.70
71672;DHT22;62112;45.638;11.714;2022-09-09T15:48:03;28.80;68.10
71672;DHT22;62112;45.638;11.714;2022-09-09T15:50:30;28.90;68.40
71672;DHT22;62112;45.638;11.714;2022-09-09T15:52:59;28.90;68.50
71672;DHT22;62112;45.638;11.714;2022-09-09T15:55:25;28.80;68.40
71672;DHT22;62112;45.638;11.714;2022-09-09T15:57:52;28.80;68.40
71672;DHT22;62112;45.638;11.714;2022-09-09T16:00:22;28.80;68.00
71672;DHT22;62112;45.638;11.714;2022-09-09T16:02:48;28.70;68.30
71672;DHT22;62112;45.638;11.714;2022-09-09T16:05:15;28.80;67.90
71672;DHT22;62112;45.638;11.714;2022-09-09T16:07:41;28.80;68.10
71672;DHT22;62112;45.638;11.714;2022-09-09T16:10:08;28.80;68.20
71672;DHT22;62112;45.638;11.714;2022-09-09T16:12:34;28.70;68.40
71672;DHT22;62112;45.638;11.714;2022-09-09T16:15:00;28.80;68.10
71672;DHT22;62112;45.638;11.714;2022-09-09T16:17:26;28.80;68.00
71672;DHT22;62112;45.638;11.714;2022-09-09T16:19:53;28.80;68.50
71672;DHT22;62112;45.638;11.714;2022-09-09T16:22:20;28.80;68.60
71672;DHT22;62112;45.638;11.714;2022-09-09T16:24:46;28.70;68.70
71672;DHT22;62112;45.638;11.714;2022-09-09T16:27:12;28.70;68.50
71672;DHT22;62112;45.638;11.714;2022-09-09T16:29:38;28.80;69.40
71672;DHT22;62112;45.638;11.714;2022-09-09T16:32:04;28.70;68.80
71672;DHT22;62112;45.638;11.714;2022-09-09T16:34:30;28.80;69.40
71672;DHT22;62112;45.638;11.714;2022-09-09T16:36:55;28.70;69.90
71672;DHT22;62112;45.638;11.714;2022-09-09T16:39:21;28.70;70.00
71672;DHT22;62112;45.638;11.714;2022-09-09T16:41:48;28.70;70.80
71672;DHT22;62112;45.638;11.714;2022-09-09T16:44:16;28.70;71.30
71672;DHT22;62112;45.638;11.714;2022-09-09T16:46:44;28.70;71.60
71672;DHT22;62112;45.638;11.714;2022-09-09T16:49:12;28.70;71.70
71672;DHT22;62112;45.638;11.714;2022-09-09T16:51:42;28.60;72.60
71672;DHT22;62112;45.638;11.714;2022-09-09T16:54:09;28.70;72.90
71672;DHT22;62112;45.638;11.714;2022-09-09T16:56:38;28.80;73.10
71672;DHT22;62112;45.638;11.714;2022-09-09T16:59:06;28.60;73.70
71672;DHT22;62112;45.638;11.714;2022-09-09T17:01:34;28.60;73.90
71672;DHT22;62112;45.638;11.714;2022-09-09T17:04:05;28.70;74.10
71672;DHT22;62112;45.638;11.714;2022-09-09T17:06:32;28.70;74.20
71672;DHT22;62112;45.638;11.714;2022-09-09T17:09:09;28.60;74.40
71672;DHT22;62112;45.638;11.714;2022-09-09T17:11:36;28.70;74.60
71672;DHT22;62112;45.638;11.714;2022-09-09T17:14:03;28.70;74.80
71672;DHT22;62112;45.638;11.714;2022-09-09T17:16:32;28.70;74.50
71672;DHT22;62112;45.638;11.714;2022-09-09T17:18:59;28.60;74.20
71672;DHT22;62112;45.638;11.714;2022-09-09T17:21:27;28.70;74.20
71672;DHT22;62112;45.638;11.714;2022-09-09T17:23:54;28.60;74.30
71672;DHT22;62112;45.638;11.714;2022-09-09T17:26:22;28.70;74.60
71672;DHT22;62112;45.638;11.714;2022-09-09T17:28:48;28.70;74.50